EHGR/GLZ METAR and TAF weather

Enter ICAO airport designator
Station Type Date Time Source
EHGR METAR 2022/08/13 12:25 UTC NOAA

EHGR 131225Z AUTO VRB04KT 9999 NCD 32/07 Q1015 BLU


Station Type Date Time Source
EHGR Decoded METAR 2022/08/13 12:25 UTC NOAA

Gilze-Rijen, Netherlands (EHGR) 51-34N 004-56E 24M
Aug 13, 2022 - 08:25 AM EDT / 2022.08.13 1225 UTC
Wind: Variable at 5 MPH (4 KT):0
Visibility: greater than 7 mile(s):0
Temperature: 89 F (32 C)
Dew Point: 44 F (7 C)
Relative Humidity: 21%
Pressure (altimeter): 29.97 in. Hg (1015 hPa)
ob: EHGR 131225Z AUTO VRB04KT 9999 NCD 32/07 Q1015 BLU
cycle: 12

Station Type Date Time Source
EHGR TAF 2022/08/12 14:39 UTC NOAA

TAF TAF EHGR 121331Z 1214/1302 CNL

Example: see airport list